createdAt,value
2023-03-30T00:00:09.854Z,33.0620
2023-03-30T00:00:21.038Z,33.0330
2023-03-30T00:00:32.252Z,33.0460
2023-03-30T00:00:43.437Z,33.0460
2023-03-30T00:00:54.662Z,33.0330
2023-03-30T00:01:06.250Z,33.0390
2023-03-30T00:01:17.731Z,33.0790
2023-03-30T00:01:28.785Z,33.0460
2023-03-30T00:01:39.835Z,33.0510
2023-03-30T00:01:50.884Z,33.0570
2023-03-30T00:02:01.969Z,33.0510
2023-03-30T00:02:13.075Z,33.0570
2023-03-30T00:02:24.255Z,33.0570
2023-03-30T00:02:35.496Z,33.0680
2023-03-30T00:02:46.602Z,33.0330
2023-03-30T00:02:57.821Z,33.0060
2023-03-30T00:03:09.191Z,32.9940
2023-03-30T00:03:20.654Z,33.0000
2023-03-30T00:03:31.897Z,33.0000
2023-03-30T00:03:43.302Z,32.9940
2023-03-30T00:03:54.721Z,33.0000
2023-03-30T00:04:06.275Z,33.0060
2023-03-30T00:04:17.721Z,33.0110
2023-03-30T00:04:29.172Z,33.0220
2023-03-30T00:04:40.375Z,33.0000
2023-03-30T00:04:51.569Z,33.0110
2023-03-30T00:05:02.733Z,33.0060
2023-03-30T00:05:14.091Z,33.0000
2023-03-30T00:05:25.400Z,32.9940
2023-03-30T00:05:36.439Z,33.0330
2023-03-30T00:05:47.499Z,33.0280
2023-03-30T00:05:58.639Z,33.0330
2023-03-30T00:06:09.880Z,33.0110
2023-03-30T00:06:21.121Z,32.9890
2023-03-30T00:06:32.250Z,32.9830
2023-03-30T00:06:43.452Z,32.9670
2023-03-30T00:06:54.493Z,32.9830
2023-03-30T00:07:05.556Z,32.9860
2023-03-30T00:07:16.724Z,32.9800
2023-03-30T00:07:27.934Z,32.9750
2023-03-30T00:07:39.002Z,32.9800
2023-03-30T00:07:50.040Z,33.0040
2023-03-30T00:08:01.204Z,32.9860
2023-03-30T00:08:12.408Z,32.9910
2023-03-30T00:08:23.605Z,32.9690
2023-03-30T00:08:34.636Z,32.9750
2023-03-30T00:08:45.684Z,32.9750
2023-03-30T00:08:56.894Z,32.9750
2023-03-30T00:09:08.084Z,33.0200
2023-03-30T00:09:19.280Z,33.0320
2023-03-30T00:09:30.320Z,33.0430
2023-03-30T00:09:41.372Z,33.0100
2023-03-30T00:09:52.411Z,32.9750
2023-03-30T00:10:03.469Z,32.9830
2023-03-30T00:10:14.681Z,32.9890
2023-03-30T00:10:25.856Z,32.9780
2023-03-30T00:10:37.071Z,32.9860
2023-03-30T00:10:48.247Z,33.0040
2023-03-30T00:10:59.290Z,32.9860
2023-03-30T00:11:10.375Z,32.9690
2023-03-30T00:11:21.526Z,32.9600
2023-03-30T00:11:32.727Z,32.9600
2023-03-30T00:11:43.944Z,32.9940
2023-03-30T00:11:54.985Z,32.9830
2023-03-30T00:12:06.015Z,32.9750
2023-03-30T00:12:17.205Z,32.9600
2023-03-30T00:12:28.251Z,32.9720
2023-03-30T00:12:39.321Z,32.9490
2023-03-30T00:12:50.533Z,32.9490
2023-03-30T00:13:01.679Z,32.9490
2023-03-30T00:13:12.889Z,32.9360
2023-03-30T00:13:24.086Z,32.9360
2023-03-30T00:13:35.134Z,32.9530
2023-03-30T00:13:46.160Z,32.9420
2023-03-30T00:13:57.367Z,32.9420
2023-03-30T00:14:08.379Z,32.9690
2023-03-30T00:14:19.455Z,32.9690
2023-03-30T00:14:30.657Z,32.9640
2023-03-30T00:14:41.690Z,32.9470
2023-03-30T00:14:52.770Z,32.9530
2023-03-30T00:15:03.925Z,32.9690
2023-03-30T00:15:15.121Z,32.9750
2023-03-30T00:15:26.338Z,32.9910
2023-03-30T00:15:37.527Z,33.0040
2023-03-30T00:15:48.724Z,33.0040
2023-03-30T00:15:59.961Z,33.0040
2023-03-30T00:16:11.262Z,32.9860
2023-03-30T00:16:22.380Z,32.9750
2023-03-30T00:16:33.537Z,32.9580
2023-03-30T00:16:44.795Z,32.9420
2023-03-30T00:16:56.083Z,32.9420
2023-03-30T00:17:07.229Z,32.9540
2023-03-30T00:17:18.355Z,32.9490
2023-03-30T00:17:29.550Z,32.9780
2023-03-30T00:17:40.736Z,32.9910
2023-03-30T00:17:51.989Z,33.0040
2023-03-30T00:18:03.174Z,33.0150
2023-03-30T00:18:14.321Z,32.9910
2023-03-30T00:18:25.410Z,32.9580
2023-03-30T00:18:36.430Z,32.9130
2023-03-30T00:18:47.611Z,32.9100
2023-03-30T00:18:58.799Z,32.9100
2023-03-30T00:19:09.851Z,32.9380
2023-03-30T00:19:20.890Z,32.9430
2023-03-30T00:19:31.929Z,32.9210
2023-03-30T00:19:43.038Z,32.9160
2023-03-30T00:19:54.175Z,32.9050
2023-03-30T00:20:05.409Z,32.9380
2023-03-30T00:20:16.616Z,32.9540
2023-03-30T00:20:27.817Z,32.9490
2023-03-30T00:20:39.031Z,32.9430
2023-03-30T00:20:50.181Z,32.9100
2023-03-30T00:21:01.413Z,32.9050
2023-03-30T00:21:12.602Z,32.8860
2023-03-30T00:21:23.766Z,32.8640
2023-03-30T00:21:34.800Z,32.8700
2023-03-30T00:21:45.849Z,32.8860
2023-03-30T00:21:56.893Z,32.9050
2023-03-30T00:22:07.920Z,32.8640
2023-03-30T00:22:19.119Z,32.8640
2023-03-30T00:22:30.146Z,32.8480
2023-03-30T00:22:41.220Z,32.8480
2023-03-30T00:22:52.415Z,32.8480
2023-03-30T00:23:03.608Z,32.8750
2023-03-30T00:23:14.650Z,32.8590
2023-03-30T00:23:25.738Z,32.8640
2023-03-30T00:23:36.921Z,32.8860
2023-03-30T00:23:48.040Z,32.8860
2023-03-30T00:23:59.193Z,32.8750
2023-03-30T00:24:10.240Z,32.8750
2023-03-30T00:24:21.365Z,32.8640
2023-03-30T00:24:32.559Z,32.8530
2023-03-30T00:24:43.766Z,32.8370
2023-03-30T00:24:54.807Z,32.8590
2023-03-30T00:25:05.846Z,32.8700
2023-03-30T00:25:17.054Z,32.8750
2023-03-30T00:25:28.265Z,32.8480
2023-03-30T00:25:39.449Z,32.8310
2023-03-30T00:25:50.646Z,32.8310
2023-03-30T00:26:01.696Z,32.8150
2023-03-30T00:26:12.815Z,32.8200
2023-03-30T00:26:23.863Z,32.8150
2023-03-30T00:26:34.909Z,32.8150
2023-03-30T00:26:46.013Z,32.8200
2023-03-30T00:26:57.206Z,32.8200
2023-03-30T00:27:08.244Z,32.8170
2023-03-30T00:27:19.281Z,32.8390
2023-03-30T00:27:30.496Z,32.8520
2023-03-30T00:27:41.691Z,32.8460
2023-03-30T00:27:52.894Z,32.8460
2023-03-30T00:28:03.950Z,32.8390
2023-03-30T00:28:15.009Z,32.8340
2023-03-30T00:28:26.255Z,32.8390
2023-03-30T00:28:37.362Z,32.8460
2023-03-30T00:28:48.560Z,32.8230
2023-03-30T00:28:59.766Z,32.8170
2023-03-30T00:29:10.791Z,32.8280
2023-03-30T00:29:21.852Z,32.8170
2023-03-30T00:29:33.057Z,32.8080
2023-03-30T00:29:44.250Z,32.8150
2023-03-30T00:29:55.442Z,32.8080
2023-03-30T00:30:06.539Z,32.7970
2023-03-30T00:30:17.590Z,32.7970
2023-03-30T00:30:28.625Z,32.7860
2023-03-30T00:30:39.664Z,32.7860
2023-03-30T00:30:50.804Z,32.7970
2023-03-30T00:31:02.319Z,32.7910
2023-03-30T00:31:13.882Z,32.8150
2023-03-30T00:31:25.067Z,32.7740
2023-03-30T00:31:36.114Z,32.7690
2023-03-30T00:31:47.165Z,32.7800
2023-03-30T00:31:58.371Z,32.8060
2023-03-30T00:32:09.458Z,32.8280
2023-03-30T00:32:20.520Z,32.8390
2023-03-30T00:32:31.664Z,32.8230
2023-03-30T00:32:42.821Z,32.7840
2023-03-30T00:32:54.008Z,32.8010
2023-03-30T00:33:05.373Z,32.8070
2023-03-30T00:33:16.429Z,32.7850
2023-03-30T00:33:41.212Z,32.7900
2023-03-30T00:33:46.912Z,32.9590
2023-03-30T00:33:58.686Z,33.0080
2023-03-30T00:34:09.848Z,32.9410
2023-03-30T00:34:21.054Z,32.9010
2023-03-30T00:34:32.244Z,32.9090
2023-03-30T00:34:43.279Z,32.8920
2023-03-30T00:34:54.319Z,32.8750
2023-03-30T00:35:05.534Z,32.8470
2023-03-30T00:35:16.741Z,32.8130
2023-03-30T00:35:27.932Z,32.8180
2023-03-30T00:35:39.000Z,32.8020
2023-03-30T00:35:50.084Z,32.8120
2023-03-30T00:36:01.192Z,32.8280
2023-03-30T00:36:12.590Z,32.8120
2023-03-30T00:36:24.026Z,32.8520
2023-03-30T00:36:35.124Z,32.8230
2023-03-30T00:36:46.305Z,32.8170
2023-03-30T00:36:57.356Z,32.8120
2023-03-30T00:37:08.405Z,32.7730
2023-03-30T00:37:19.638Z,32.7520
2023-03-30T00:37:30.798Z,32.7520
2023-03-30T00:37:42.042Z,32.7630
2023-03-30T00:37:53.215Z,32.7800
2023-03-30T00:38:04.247Z,32.8020
2023-03-30T00:38:15.281Z,32.7910
2023-03-30T00:38:26.498Z,32.7860
2023-03-30T00:38:37.708Z,32.7800
2023-03-30T00:38:48.728Z,32.7860
2023-03-30T00:38:59.758Z,32.7520
2023-03-30T00:39:10.798Z,32.7230
2023-03-30T00:39:21.838Z,32.7120
2023-03-30T00:39:33.050Z,32.7010
2023-03-30T00:39:44.268Z,32.7120
2023-03-30T00:39:55.444Z,32.7470
2023-03-30T00:40:06.648Z,32.7470
2023-03-30T00:40:17.849Z,32.7360
2023-03-30T00:40:29.043Z,32.7410
2023-03-30T00:40:40.237Z,32.7360
2023-03-30T00:40:51.277Z,32.7290
2023-03-30T00:41:02.568Z,32.7120
2023-03-30T00:41:13.889Z,32.7120
2023-03-30T00:41:25.084Z,32.7010
2023-03-30T00:41:36.237Z,32.7010
2023-03-30T00:41:47.449Z,32.6960
2023-03-30T00:41:58.642Z,32.7070
2023-03-30T00:42:09.689Z,32.7010
2023-03-30T00:42:20.727Z,32.7010
2023-03-30T00:42:31.932Z,32.7010
2023-03-30T00:42:43.137Z,32.6960
2023-03-30T00:42:54.188Z,32.7290
2023-03-30T00:43:05.230Z,32.7360
2023-03-30T00:43:16.291Z,32.7230
2023-03-30T00:43:27.348Z,32.7410
2023-03-30T00:43:38.479Z,32.7580
2023-03-30T00:43:49.525Z,32.7520
2023-03-30T00:44:00.574Z,32.7360
2023-03-30T00:44:11.756Z,32.7120
2023-03-30T00:44:22.797Z,32.7290
2023-03-30T00:44:33.847Z,32.7410
2023-03-30T00:44:44.890Z,32.7690
2023-03-30T00:44:55.917Z,32.7800
2023-03-30T00:45:07.133Z,32.7740
2023-03-30T00:45:18.348Z,32.7740
2023-03-30T00:45:29.385Z,32.7630
2023-03-30T00:45:40.492Z,32.7180
2023-03-30T00:45:51.642Z,32.7180
2023-03-30T00:46:02.821Z,32.7070
2023-03-30T00:46:13.900Z,32.7120
2023-03-30T00:46:24.973Z,32.7010
2023-03-30T00:46:36.127Z,32.7010
2023-03-30T00:46:47.277Z,32.7230
2023-03-30T00:46:58.494Z,32.7230
2023-03-30T00:47:09.682Z,32.7180
2023-03-30T00:47:20.882Z,32.7230
2023-03-30T00:47:32.087Z,32.7230
2023-03-30T00:47:43.189Z,32.7440
2023-03-30T00:47:54.284Z,32.7630
2023-03-30T00:48:05.482Z,32.7470
2023-03-30T00:48:16.566Z,32.7470
2023-03-30T00:48:27.771Z,32.7520
2023-03-30T00:48:38.974Z,32.7410
2023-03-30T00:48:50.020Z,32.7520
2023-03-30T00:49:01.073Z,32.7580
2023-03-30T00:49:12.254Z,32.7120
2023-03-30T00:49:23.443Z,32.6960
2023-03-30T00:49:34.548Z,32.7010
2023-03-30T00:49:45.633Z,32.7010
2023-03-30T00:49:56.695Z,32.7360
2023-03-30T00:50:07.962Z,32.7800
2023-03-30T00:50:19.010Z,32.8060
2023-03-30T00:50:30.049Z,32.8230
2023-03-30T00:50:41.201Z,32.8120
2023-03-30T00:50:52.396Z,32.7840
2023-03-30T00:51:03.684Z,32.7670
2023-03-30T00:51:15.127Z,32.7840
2023-03-30T00:51:26.168Z,32.7550
2023-03-30T00:51:37.240Z,32.7670
2023-03-30T00:51:48.405Z,32.7550
2023-03-30T00:51:59.461Z,32.7550
2023-03-30T00:52:10.476Z,32.7380
2023-03-30T00:52:21.533Z,32.7270
2023-03-30T00:52:32.566Z,32.7440
2023-03-30T00:52:43.770Z,32.7600
2023-03-30T00:52:54.965Z,32.7500
2023-03-30T00:53:06.013Z,32.7440
2023-03-30T00:53:17.081Z,32.7220
2023-03-30T00:53:28.251Z,32.7380
2023-03-30T00:53:39.266Z,32.7440
2023-03-30T00:53:50.360Z,32.7440
2023-03-30T00:54:01.531Z,32.7600
2023-03-30T00:54:12.546Z,32.7500
2023-03-30T00:54:23.610Z,32.7440
2023-03-30T00:54:34.812Z,32.7500
2023-03-30T00:54:45.847Z,32.7410
2023-03-30T00:54:56.899Z,32.7290
2023-03-30T00:55:08.094Z,32.7230
2023-03-30T00:55:19.123Z,32.7230
2023-03-30T00:55:30.167Z,32.7180
2023-03-30T00:55:41.243Z,32.7230
2023-03-30T00:55:52.280Z,32.7500
2023-03-30T00:56:03.450Z,32.7270
2023-03-30T00:56:14.642Z,32.7440
2023-03-30T00:56:25.851Z,32.7500
2023-03-30T00:56:37.036Z,32.7500
2023-03-30T00:56:48.326Z,32.7380
2023-03-30T00:56:59.483Z,32.7270
2023-03-30T00:57:10.710Z,32.7270
2023-03-30T00:57:21.925Z,32.7220
2023-03-30T00:57:32.984Z,32.7380
2023-03-30T00:57:44.104Z,32.7270
2023-03-30T00:57:55.203Z,32.7160
2023-03-30T00:58:06.242Z,32.7380
2023-03-30T00:58:17.306Z,32.7380
2023-03-30T00:58:28.414Z,32.7500
2023-03-30T00:58:39.462Z,32.7550
2023-03-30T00:58:50.504Z,32.7520
2023-03-30T00:59:01.673Z,32.7290
2023-03-30T00:59:12.732Z,32.7470
2023-03-30T00:59:23.768Z,32.7470
2023-03-30T00:59:34.962Z,32.7630
2023-03-30T00:59:46.003Z,32.7900
2023-03-30T00:59:57.054Z,32.7730
2023-03-30T01:00:08.240Z,32.7550
2023-03-30T01:00:19.368Z,32.7500
2023-03-30T01:00:30.420Z,32.7330
2023-03-30T01:00:41.524Z,32.7500
2023-03-30T01:00:52.556Z,32.7600
2023-03-30T01:01:03.902Z,32.7600
2023-03-30T01:01:15.246Z,32.7730
2023-03-30T01:01:26.394Z,32.7630
2023-03-30T01:01:37.473Z,32.7570
2023-03-30T01:01:48.787Z,32.7570
2023-03-30T01:01:59.954Z,32.7630
2023-03-30T01:02:11.201Z,32.7740
2023-03-30T01:02:22.319Z,32.7850
2023-03-30T01:02:33.643Z,32.7680
2023-03-30T01:02:44.786Z,32.7630
2023-03-30T01:02:55.961Z,32.7740
2023-03-30T01:03:07.639Z,32.7910
2023-03-30T01:03:18.970Z,32.7630
2023-03-30T01:03:30.413Z,32.7850
2023-03-30T01:03:41.799Z,32.8070
2023-03-30T01:03:53.014Z,32.8310
2023-03-30T01:04:04.159Z,32.8250
2023-03-30T01:04:15.293Z,32.8250
2023-03-30T01:04:26.488Z,32.7800
2023-03-30T01:04:37.769Z,32.7680
2023-03-30T01:04:48.802Z,32.7570
2023-03-30T01:04:59.853Z,32.7630
2023-03-30T01:05:10.967Z,32.7570
2023-03-30T01:05:22.158Z,32.7570
2023-03-30T01:05:33.372Z,32.7800
2023-03-30T01:05:44.561Z,32.7520
2023-03-30T01:05:55.637Z,32.7680
2023-03-30T01:06:06.681Z,32.7630
2023-03-30T01:06:17.920Z,32.7520
2023-03-30T01:06:29.379Z,32.7680
2023-03-30T01:06:40.946Z,32.7630
2023-03-30T01:06:52.164Z,32.7960
2023-03-30T01:07:03.291Z,32.7740
2023-03-30T01:07:14.473Z,32.7570
2023-03-30T01:07:25.691Z,32.7340
2023-03-30T01:07:36.918Z,32.7390
2023-03-30T01:07:47.947Z,32.7340
2023-03-30T01:07:59.019Z,32.7390
2023-03-30T01:08:10.171Z,32.7280
2023-03-30T01:08:21.363Z,32.7280
2023-03-30T01:08:32.696Z,32.7230
2023-03-30T01:08:43.749Z,32.7340
2023-03-30T01:08:54.976Z,32.7280
2023-03-30T01:09:06.173Z,32.7340
2023-03-30T01:09:17.389Z,32.7460
2023-03-30T01:09:28.559Z,32.7390
2023-03-30T01:09:39.764Z,32.7390
2023-03-30T01:09:50.799Z,32.7520
2023-03-30T01:10:01.887Z,32.7390
2023-03-30T01:10:13.047Z,32.7230
2023-03-30T01:10:24.257Z,32.7390
2023-03-30T01:10:35.448Z,32.7570
2023-03-30T01:10:46.506Z,32.7390
2023-03-30T01:10:57.547Z,32.7500
2023-03-30T01:11:08.608Z,32.7380
2023-03-30T01:11:19.673Z,32.7500
2023-03-30T01:11:30.805Z,32.7440
2023-03-30T01:11:41.841Z,32.7270
2023-03-30T01:11:52.943Z,32.7160
2023-03-30T01:12:04.082Z,32.7110
2023-03-30T01:12:15.108Z,32.7050
2023-03-30T01:12:26.164Z,32.7330
2023-03-30T01:12:37.374Z,32.7170
2023-03-30T01:12:48.570Z,32.7270
2023-03-30T01:12:59.764Z,32.7270
2023-03-30T01:13:10.961Z,32.7330
2023-03-30T01:13:22.024Z,32.7330
2023-03-30T01:13:33.038Z,32.7220
2023-03-30T01:13:44.255Z,32.7330
2023-03-30T01:13:55.448Z,32.7270
2023-03-30T01:14:06.520Z,32.7160
2023-03-30T01:14:17.566Z,32.7270
2023-03-30T01:14:28.605Z,32.7220
2023-03-30T01:14:39.661Z,32.7160
2023-03-30T01:14:50.686Z,32.7110
2023-03-30T01:15:01.743Z,32.7120
2023-03-30T01:15:12.871Z,32.7280
2023-03-30T01:15:24.111Z,32.7340
2023-03-30T01:15:35.208Z,32.7340
2023-03-30T01:15:46.524Z,32.7280
2023-03-30T01:15:57.723Z,32.7170
2023-03-30T01:16:08.737Z,32.7230
2023-03-30T01:16:19.805Z,32.7460
2023-03-30T01:16:30.963Z,32.7630
2023-03-30T01:16:42.025Z,32.7680
2023-03-30T01:16:53.092Z,32.7570
2023-03-30T01:17:04.282Z,32.7520
2023-03-30T01:17:15.318Z,32.7570
2023-03-30T01:17:26.409Z,32.7790
2023-03-30T01:17:37.611Z,32.7670
2023-03-30T01:17:48.690Z,32.7550
2023-03-30T01:17:59.849Z,32.7330
2023-03-30T01:18:11.048Z,32.7270
2023-03-30T01:18:22.086Z,32.7330
2023-03-30T01:18:33.221Z,32.7380
2023-03-30T01:18:44.404Z,32.7330
2023-03-30T01:18:55.430Z,32.7160
2023-03-30T01:19:06.482Z,32.7110
2023-03-30T01:19:17.688Z,32.7110
2023-03-30T01:19:28.892Z,32.7220
2023-03-30T01:19:40.088Z,32.7330
2023-03-30T01:19:51.306Z,32.7110
2023-03-30T01:20:02.485Z,32.7270
2023-03-30T01:20:13.690Z,32.7270
2023-03-30T01:20:24.732Z,32.7160
2023-03-30T01:20:35.769Z,32.7270
2023-03-30T01:20:46.969Z,32.7330
2023-03-30T01:20:58.018Z,32.7520
2023-03-30T01:21:09.074Z,32.7570
2023-03-30T01:21:20.251Z,32.7520
2023-03-30T01:21:31.405Z,32.7790
2023-03-30T01:21:42.438Z,32.7600
2023-03-30T01:21:53.567Z,32.7500
2023-03-30T01:22:04.706Z,32.7500
2023-03-30T01:22:15.922Z,32.7440
2023-03-30T01:22:26.966Z,32.7270
2023-03-30T01:22:38.009Z,32.7160
2023-03-30T01:22:49.583Z,32.7460
2023-03-30T01:23:00.720Z,32.7390
2023-03-30T01:23:11.927Z,32.7280
2023-03-30T01:23:23.145Z,32.7280
2023-03-30T01:23:34.207Z,32.7740
2023-03-30T01:23:45.264Z,32.7570
2023-03-30T01:23:56.408Z,32.7390
2023-03-30T01:24:07.415Z,32.7570
2023-03-30T01:24:18.477Z,32.7460
2023-03-30T01:24:29.685Z,32.7280
2023-03-30T01:24:40.879Z,32.7680
2023-03-30T01:24:51.988Z,32.7740
2023-03-30T01:25:03.086Z,32.7740
2023-03-30T01:25:14.155Z,32.7630
2023-03-30T01:25:25.379Z,32.7680
2023-03-30T01:25:36.411Z,32.7630
2023-03-30T01:25:47.447Z,32.7740
2023-03-30T01:25:58.646Z,32.7800
2023-03-30T01:26:09.844Z,32.8010
2023-03-30T01:26:20.926Z,32.7950
2023-03-30T01:26:31.961Z,32.8010
2023-03-30T01:26:43.116Z,32.8120
2023-03-30T01:26:54.322Z,32.8230
2023-03-30T01:27:05.564Z,32.8340
2023-03-30T01:27:16.757Z,32.8340
2023-03-30T01:27:27.926Z,32.8170
2023-03-30T01:27:38.971Z,32.8280
2023-03-30T01:27:50.032Z,32.8120
2023-03-30T01:28:01.216Z,32.8010
2023-03-30T01:28:12.404Z,32.8340
2023-03-30T01:28:23.454Z,32.8170
2023-03-30T01:28:34.496Z,32.8120
2023-03-30T01:28:45.684Z,32.8230
2023-03-30T01:28:56.877Z,32.8010
2023-03-30T01:29:08.088Z,32.8010
2023-03-30T01:29:19.119Z,32.7900
2023-03-30T01:29:30.172Z,32.7840
2023-03-30T01:29:41.199Z,32.8120
2023-03-30T01:29:52.243Z,32.8280
2023-03-30T01:30:03.447Z,32.8390
2023-03-30T01:30:14.651Z,32.8570
2023-03-30T01:30:25.851Z,32.8630
2023-03-30T01:30:36.895Z,32.8570
2023-03-30T01:30:47.943Z,32.8570
2023-03-30T01:30:59.148Z,32.8590
2023-03-30T01:31:10.378Z,32.8810
2023-03-30T01:31:21.547Z,32.8990
2023-03-30T01:31:32.742Z,32.9100
2023-03-30T01:31:44.016Z,32.9100
2023-03-30T01:31:55.135Z,32.8990
2023-03-30T01:32:06.352Z,32.8860
2023-03-30T01:32:17.541Z,32.8930
2023-03-30T01:32:28.785Z,32.8990
2023-03-30T01:32:39.847Z,32.8930
2023-03-30T01:32:50.877Z,32.8930
2023-03-30T01:33:01.932Z,32.8810
2023-03-30T01:33:13.004Z,32.8860
2023-03-30T01:33:24.084Z,32.8780
2023-03-30T01:33:35.288Z,32.8780
2023-03-30T01:33:46.330Z,32.8840
2023-03-30T01:33:57.368Z,32.8670
2023-03-30T01:34:08.413Z,32.8730
2023-03-30T01:34:19.457Z,32.8890
2023-03-30T01:34:30.644Z,32.8890
2023-03-30T01:34:41.846Z,32.8930
2023-03-30T01:34:52.923Z,32.8990
2023-03-30T01:35:04.007Z,32.9050
2023-03-30T01:35:15.144Z,32.9320
2023-03-30T01:35:26.423Z,32.9490
2023-03-30T01:35:37.659Z,32.9540
2023-03-30T01:35:49.118Z,32.9720
2023-03-30T01:36:00.351Z,32.9720
2023-03-30T01:36:11.823Z,32.9670
2023-03-30T01:36:23.000Z,32.9540
2023-03-30T01:36:34.052Z,32.9600
2023-03-30T01:36:45.078Z,32.9940
2023-03-30T01:36:56.118Z,32.9780
2023-03-30T01:37:07.158Z,32.9780
2023-03-30T01:37:18.319Z,32.9830
2023-03-30T01:37:29.517Z,33.0060
2023-03-30T01:37:40.567Z,33.0000
2023-03-30T01:37:51.602Z,32.9940
2023-03-30T01:38:02.648Z,32.9830
2023-03-30T01:38:13.700Z,32.9940
2023-03-30T01:38:24.891Z,33.0060
2023-03-30T01:38:35.919Z,33.0170
2023-03-30T01:38:46.975Z,33.0390
2023-03-30T01:38:58.157Z,33.0620
2023-03-30T01:39:09.225Z,33.0680
2023-03-30T01:39:20.348Z,33.0840
2023-03-30T01:39:31.444Z,33.0730
2023-03-30T01:39:42.639Z,33.0950
2023-03-30T01:39:53.848Z,33.0730
2023-03-30T01:40:05.046Z,33.0790
2023-03-30T01:40:16.079Z,33.0790
2023-03-30T01:40:27.115Z,33.0730
2023-03-30T01:40:38.329Z,33.0680
2023-03-30T01:40:49.526Z,33.0840
2023-03-30T01:41:00.788Z,33.0840
2023-03-30T01:41:11.875Z,33.1180
2023-03-30T01:41:22.904Z,33.1300
2023-03-30T01:41:34.015Z,33.1070
2023-03-30T01:41:45.201Z,33.1180
2023-03-30T01:41:56.419Z,33.1180
2023-03-30T01:42:07.477Z,33.1070
2023-03-30T01:42:18.548Z,33.1250
2023-03-30T01:42:29.605Z,33.1470
2023-03-30T01:42:40.648Z,33.1410
2023-03-30T01:42:51.766Z,33.1360
2023-03-30T01:43:02.972Z,33.1250
2023-03-30T01:43:14.007Z,33.1180
2023-03-30T01:43:25.044Z,33.1250
2023-03-30T01:43:36.094Z,33.0900
2023-03-30T01:43:47.133Z,33.0900
2023-03-30T01:43:58.324Z,33.1040
2023-03-30T01:44:09.438Z,33.1150
2023-03-30T01:44:20.510Z,33.1210
2023-03-30T01:44:31.539Z,33.1260
2023-03-30T01:44:42.584Z,33.1100
2023-03-30T01:44:53.678Z,33.1120
2023-03-30T01:45:04.888Z,33.1250
2023-03-30T01:45:16.081Z,33.1250
2023-03-30T01:45:27.279Z,33.1250
2023-03-30T01:45:38.488Z,33.1750
2023-03-30T01:45:49.528Z,33.1800
2023-03-30T01:46:00.559Z,33.1910
2023-03-30T01:46:11.799Z,33.1980
2023-03-30T01:46:23.004Z,33.1750
2023-03-30T01:46:34.085Z,33.1800
2023-03-30T01:46:45.381Z,33.1750
2023-03-30T01:46:56.642Z,33.1800
2023-03-30T01:47:07.808Z,33.1910
2023-03-30T01:47:18.839Z,33.1980
2023-03-30T01:47:29.944Z,33.1860
2023-03-30T01:47:41.081Z,33.1860
2023-03-30T01:47:52.177Z,33.2200
2023-03-30T01:48:03.259Z,33.1980
2023-03-30T01:48:14.329Z,33.1980
2023-03-30T01:48:25.524Z,33.2090
2023-03-30T01:48:36.552Z,33.2370
2023-03-30T01:48:47.598Z,33.2370
2023-03-30T01:48:58.652Z,33.2700
2023-03-30T01:49:09.701Z,33.2590
2023-03-30T01:49:20.885Z,33.2540
2023-03-30T01:49:31.941Z,33.2540
2023-03-30T01:49:42.965Z,33.2590
2023-03-30T01:49:54.167Z,33.2480
2023-03-30T01:50:05.201Z,33.2540
2023-03-30T01:50:16.241Z,33.2880
2023-03-30T01:50:27.437Z,33.2700
2023-03-30T01:50:38.649Z,33.2830
2023-03-30T01:50:49.838Z,33.2830
2023-03-30T01:51:01.298Z,33.2650
2023-03-30T01:51:12.570Z,33.2700
2023-03-30T01:51:23.764Z,33.2650
2023-03-30T01:51:34.806Z,33.2830
2023-03-30T01:51:45.848Z,33.3110
2023-03-30T01:51:56.932Z,33.3270
2023-03-30T01:52:08.036Z,33.3270
2023-03-30T01:52:19.053Z,33.3380
2023-03-30T01:52:30.098Z,33.3380
2023-03-30T01:52:41.256Z,33.3620
2023-03-30T01:52:52.419Z,33.3950
2023-03-30T01:53:03.598Z,33.4060
2023-03-30T01:53:14.724Z,33.4230
2023-03-30T01:53:25.775Z,33.4360
2023-03-30T01:53:36.888Z,33.4280
2023-03-30T01:53:48.088Z,33.4480
2023-03-30T01:53:59.133Z,33.4650
2023-03-30T01:54:10.164Z,33.4590
2023-03-30T01:54:21.199Z,33.4540
2023-03-30T01:54:32.236Z,33.4480
2023-03-30T01:54:43.463Z,33.4430
2023-03-30T01:54:54.644Z,33.4830
2023-03-30T01:55:05.845Z,33.4260
2023-03-30T01:55:17.044Z,33.4090
2023-03-30T01:55:28.244Z,33.4040
2023-03-30T01:55:39.544Z,33.3860
2023-03-30T01:55:50.646Z,33.4150
2023-03-30T01:56:01.700Z,33.4370
2023-03-30T01:56:12.734Z,33.4520
2023-03-30T01:56:23.919Z,33.4630
2023-03-30T01:56:34.976Z,33.4690
2023-03-30T01:56:46.055Z,33.4800
2023-03-30T01:56:57.217Z,33.5480
2023-03-30T01:57:08.519Z,33.4970
2023-03-30T01:57:19.643Z,33.5150
2023-03-30T01:57:30.799Z,33.5370
2023-03-30T01:57:42.000Z,33.5310
2023-03-30T01:57:53.206Z,33.5090
2023-03-30T01:58:04.410Z,33.4970
2023-03-30T01:58:15.598Z,33.5090
2023-03-30T01:58:26.802Z,33.5090
2023-03-30T01:58:37.839Z,33.5310
2023-03-30T01:58:48.882Z,33.5940
2023-03-30T01:59:00.132Z,33.6220
2023-03-30T01:59:11.158Z,33.6050
2023-03-30T01:59:22.181Z,33.5940
2023-03-30T01:59:33.376Z,33.5810
2023-03-30T01:59:44.439Z,33.6110
2023-03-30T01:59:55.488Z,33.5940
2023-03-30T02:00:06.640Z,33.6270
2023-03-30T02:00:17.697Z,33.6330
2023-03-30T02:00:28.722Z,33.6270
2023-03-30T02:00:39.849Z,33.6790
2023-03-30T02:00:50.908Z,33.7290
2023-03-30T02:01:02.316Z,33.7230
2023-03-30T02:01:13.784Z,33.7470
2023-03-30T02:01:24.882Z,33.7580
2023-03-30T02:01:35.969Z,33.7580
2023-03-30T02:01:47.173Z,33.7290
2023-03-30T02:01:58.239Z,33.7230
2023-03-30T02:02:09.330Z,33.7230
2023-03-30T02:02:20.401Z,33.7520
2023-03-30T02:02:31.661Z,33.7640
2023-03-30T02:02:42.883Z,33.7580
2023-03-30T02:02:54.058Z,33.7860
2023-03-30T02:03:05.171Z,33.8030
2023-03-30T02:03:16.482Z,33.8260
2023-03-30T02:03:27.709Z,33.8320
2023-03-30T02:03:38.967Z,33.7910
2023-03-30T02:03:50.435Z,33.7860
2023-03-30T02:04:01.594Z,33.7910
2023-03-30T02:04:12.668Z,33.8030
2023-03-30T02:04:23.742Z,33.8370
2023-03-30T02:04:34.804Z,33.8080
2023-03-30T02:04:46.008Z,33.8140
2023-03-30T02:04:57.203Z,33.8320
2023-03-30T02:05:08.399Z,33.8370
2023-03-30T02:05:19.607Z,33.8760
2023-03-30T02:05:30.800Z,33.9280
2023-03-30T02:05:42.027Z,33.9340
2023-03-30T02:05:53.198Z,33.9170
2023-03-30T02:06:04.408Z,33.9170
2023-03-30T02:06:15.428Z,33.9170
2023-03-30T02:06:26.484Z,33.9060
2023-03-30T02:06:37.700Z,33.8930
2023-03-30T02:06:48.728Z,33.9220
2023-03-30T02:06:59.759Z,33.9220
2023-03-30T02:07:10.828Z,33.9390
2023-03-30T02:07:21.893Z,33.9280
2023-03-30T02:07:33.050Z,33.9390
2023-03-30T02:07:44.247Z,33.9740
2023-03-30T02:07:55.447Z,34.0070
2023-03-30T02:08:06.643Z,33.9910
2023-03-30T02:08:17.683Z,33.9610
2023-03-30T02:08:28.718Z,33.9790
2023-03-30T02:08:39.941Z,34.0190
2023-03-30T02:08:51.120Z,34.0460
2023-03-30T02:09:02.168Z,34.0240
2023-03-30T02:09:13.198Z,33.9790
2023-03-30T02:09:24.260Z,33.9740
2023-03-30T02:09:35.290Z,33.9740
2023-03-30T02:09:46.330Z,33.9560
2023-03-30T02:09:57.386Z,33.9560
2023-03-30T02:10:08.571Z,33.9670
2023-03-30T02:10:19.765Z,34.0300
2023-03-30T02:10:30.820Z,34.0760
2023-03-30T02:10:41.968Z,34.0980
2023-03-30T02:10:53.049Z,34.1090
2023-03-30T02:11:04.383Z,34.1380
2023-03-30T02:11:15.800Z,34.1760
2023-03-30T02:11:26.958Z,34.1930
2023-03-30T02:11:38.173Z,34.1930
2023-03-30T02:11:49.373Z,34.2210
2023-03-30T02:12:00.590Z,34.2320
2023-03-30T02:12:11.821Z,34.2500
2023-03-30T02:12:22.842Z,34.2890
2023-03-30T02:12:33.858Z,34.2830
2023-03-30T02:12:45.044Z,34.2290
2023-03-30T02:12:56.246Z,34.2120
2023-03-30T02:13:07.448Z,34.2180
2023-03-30T02:13:18.638Z,34.2120
2023-03-30T02:13:29.847Z,34.1890
2023-03-30T02:13:41.063Z,34.2120
2023-03-30T02:13:52.244Z,34.2070
2023-03-30T02:14:03.439Z,34.2180
2023-03-30T02:14:14.644Z,34.2290
2023-03-30T02:14:25.679Z,34.1940
2023-03-30T02:14:36.736Z,34.1720
2023-03-30T02:14:47.936Z,34.1550
2023-03-30T02:14:58.964Z,34.1780